Air Quality Table

TIMESTAMP NO2 SO2 O3 PM10 TEMP HUM AIRPRES WS WD NO
2021-10-17 16:00 4.96 µg/m3 1.83 µg/m3 92.2 µg/m3 15.98 µg/m3 21.9 °C 66.78 % 1,010.25 mbar 2.27 m/s 120.25 Deg 0.39 µg/m3
2021-10-17 15:00 4.03 µg/m3 1.83 µg/m3 90.9 µg/m3 18.48 µg/m3 22.35 °C 65.96 % 1,009.97 mbar 2.36 m/s 265.12 Deg 0.32 µg/m3
2021-10-17 14:00 2.84 µg/m3 2.05 µg/m3 89.9 µg/m3 17.54 µg/m3 23.32 °C 63.96 % 1,010.08 mbar 1.89 m/s 246.23 Deg 0.29 µg/m3
2021-10-17 13:00 4.64 µg/m3 1.86 µg/m3 86.38 µg/m3 12.73 µg/m3 23 °C 65.08 % 1,010.70 mbar 2.33 m/s 268.12 Deg 0.65 µg/m3
2021-10-17 12:00 5.49 µg/m3 2.04 µg/m3 87.39 µg/m3 14.63 µg/m3 22.84 °C 65.15 % 1,011.02 mbar 2.49 m/s 250.53 Deg 0.8 µg/m3
2021-10-17 11:00 5.79 µg/m3 2.04 µg/m3 86.11 µg/m3 18.71 µg/m3 22.45 °C 65.22 % 1,011.24 mbar 2.41 m/s 246.37 Deg 0.89 µg/m3
2021-10-17 10:00 8.49 µg/m3 2.2 µg/m3 84.52 µg/m3 25.77 µg/m3 22.05 °C 66.25 % 1,011.28 mbar 1.71 m/s 271.25 Deg 1.22 µg/m3
2021-10-17 09:00 15.59 µg/m3 2.14 µg/m3 77.12 µg/m3 39.45 µg/m3 21.03 °C 70.52 % 1,011.16 mbar 0.87 m/s 332.43 Deg 2.11 µg/m3
2021-10-17 08:00 37.08 µg/m3 2.09 µg/m3 50.65 µg/m3 22.09 µg/m3 19.57 °C 77.92 % 1,010.81 mbar 0.58 m/s 311.01 Deg 5.15 µg/m3
2021-10-17 07:00 40.89 µg/m3 2.19 µg/m3 37.33 µg/m3 20.02 µg/m3 17.97 °C 84.67 % 1,010.66 mbar 1.35 m/s 305.92 Deg 3.45 µg/m3
2021-10-17 06:00 25.36 µg/m3 2.08 µg/m3 48.3 µg/m3 18.63 µg/m3 18.07 °C 83.55 % 1,010.38 mbar 1.17 m/s 313.17 Deg 0.83 µg/m3
2021-10-17 05:00 18.06 µg/m3 2.03 µg/m3 55.73 µg/m3 23.79 µg/m3 18.42 °C 81.46 % 1,010.30 mbar 1.13 m/s 320.47 Deg 0.47 µg/m3
2021-10-17 04:00 14.75 µg/m3 2.09 µg/m3 55.75 µg/m3 16.41 µg/m3 18.4 °C 81.32 % 1,010.42 mbar 1.07 m/s 307.88 Deg 0.22 µg/m3
2021-10-17 03:00 19.44 µg/m3 2.42 µg/m3 54.01 µg/m3 18.16 µg/m3 18.82 °C 78.92 % 1,010.69 mbar 0.89 m/s 313.35 Deg 0.34 µg/m3
2021-10-17 02:00 16.94 µg/m3 2.05 µg/m3 59.87 µg/m3 26.05 µg/m3 19.17 °C 76.75 % 1,010.85 mbar 0.81 m/s 338.97 Deg 0.19 µg/m3
2021-10-17 01:00 21.15 µg/m3 2.19 µg/m3 56.85 µg/m3 36.19 µg/m3 19.18 °C 76.71 % 1,010.88 mbar 0.87 m/s 337.83 Deg 0.29 µg/m3
2021-10-17 00:00 28.8 µg/m3 2.27 µg/m3 48.85 µg/m3 35.04 µg/m3 19.23 °C 77.77 % 1,010.92 mbar 0.8 m/s 326.15 Deg 0.62 µg/m3
2021-10-16 23:00 31.15 µg/m3 2.26 µg/m3 46.84 µg/m3 27.47 µg/m3 19.33 °C 77.24 % 1,011.00 mbar 0.94 m/s 297.25 Deg 2.25 µg/m3
2021-10-16 22:00 32.87 µg/m3 2.07 µg/m3 43.28 µg/m3 38.6 µg/m3 19.23 °C 77.18 % 1,011.10 mbar 0.73 m/s 310.45 Deg 0.89 µg/m3
2021-10-16 21:00 39.51 µg/m3 2.28 µg/m3 40.35 µg/m3 52.95 µg/m3 19.43 °C 76.33 % 1,011.09 mbar 0.75 m/s 308.53 Deg 2.84 µg/m3
2021-10-16 20:00 35.88 µg/m3 2.27 µg/m3 48.6 µg/m3 47.42 µg/m3 19.65 °C 76.05 % 1,010.74 mbar 0.79 m/s 327.06 Deg 1.85 µg/m3
2021-10-16 19:00 31.24 µg/m3 2.3 µg/m3 55.27 µg/m3 40.3 µg/m3 20.08 °C 74.7 % 1,010.30 mbar 1.21 m/s 314.15 Deg 2.28 µg/m3

It is to be noted that the data is provisional and subject to quality assurance procedures. For validated data kindly refer your request to contact.air@era.org.mt